createdAt,value
2022-12-04T00:01:50.641Z,36.35
2022-12-04T00:04:20.127Z,34.98
2022-12-04T00:06:54.038Z,33.55
2022-12-04T00:09:20.717Z,32.80
2022-12-04T00:11:50.223Z,31.52
2022-12-04T00:14:19.717Z,33.15
2022-12-04T00:16:50.883Z,30.43
2022-12-04T00:19:20.341Z,31.73
2022-12-04T00:21:52.613Z,32.20
2022-12-04T00:24:22.115Z,32.23
2022-12-04T00:26:53.236Z,31.35
2022-12-04T00:29:22.727Z,32.23
2022-12-04T00:31:52.298Z,30.60
2022-12-04T00:34:23.297Z,31.05
2022-12-04T00:36:52.794Z,32.55
2022-12-04T00:39:22.213Z,32.85
2022-12-04T00:41:51.653Z,31.15
2022-12-04T00:44:21.174Z,31.27
2022-12-04T00:46:50.686Z,32.00
2022-12-04T00:49:20.122Z,33.58
2022-12-04T00:51:51.113Z,31.93
2022-12-04T00:54:20.530Z,32.17
2022-12-04T00:56:49.976Z,33.83
2022-12-04T00:59:19.494Z,31.97
2022-12-04T01:01:48.937Z,32.35
2022-12-04T01:04:18.358Z,32.58
2022-12-04T01:06:49.193Z,34.33
2022-12-04T01:09:20.060Z,32.88
2022-12-04T01:11:49.531Z,32.35
2022-12-04T01:14:18.973Z,32.67
2022-12-04T01:16:49.893Z,33.02
2022-12-04T01:19:19.318Z,32.40
2022-12-04T01:21:49.024Z,31.35
2022-12-04T01:24:18.527Z,31.40
2022-12-04T01:26:48.038Z,30.37
2022-12-04T01:29:17.589Z,30.27
2022-12-04T01:31:47.080Z,31.17
2022-12-04T01:34:16.645Z,30.57
2022-12-04T01:36:46.230Z,30.85
2022-12-04T01:39:15.723Z,30.27
2022-12-04T01:41:45.227Z,29.18
2022-12-04T01:44:24.047Z,29.30
2022-12-04T01:46:56.547Z,29.52
2022-12-04T01:49:31.822Z,32.38
2022-12-04T01:52:10.173Z,31.27
2022-12-04T01:54:42.902Z,29.45
2022-12-04T01:57:24.608Z,30.37
2022-12-04T01:59:59.868Z,28.23
2022-12-04T02:02:32.400Z,28.10
2022-12-04T02:07:33.306Z,28.52
2022-12-04T02:10:04.908Z,30.80
2022-12-04T02:12:46.411Z,30.17
2022-12-04T02:15:35.771Z,27.13
2022-12-04T02:18:11.112Z,30.25
2022-12-04T02:20:46.767Z,31.90
2022-12-04T02:23:31.202Z,31.90
2022-12-04T02:26:20.073Z,30.90
2022-12-04T02:29:12.255Z,29.32
2022-12-04T02:32:05.667Z,27.85
2022-12-04T02:37:08.395Z,28.85
2022-12-04T02:39:42.264Z,28.12
2022-12-04T02:42:17.404Z,27.40
2022-12-04T02:44:49.889Z,26.17
2022-12-04T02:47:22.569Z,28.12
2022-12-04T02:49:55.230Z,27.27
2022-12-04T02:52:28.859Z,25.35
2022-12-04T02:55:08.002Z,25.32
2022-12-04T02:57:37.019Z,26.73
2022-12-04T03:00:09.734Z,26.95
2022-12-04T03:02:52.517Z,25.88
2022-12-04T03:05:26.023Z,26.70
2022-12-04T03:08:01.594Z,26.85
2022-12-04T03:10:34.077Z,27.35
2022-12-04T03:15:36.675Z,24.50
2022-12-04T03:18:09.190Z,24.35
2022-12-04T03:20:40.764Z,26.40
2022-12-04T03:26:00.064Z,26.62
2022-12-04T03:28:32.577Z,26.77
2022-12-04T03:31:05.167Z,26.65
2022-12-04T03:33:43.948Z,25.55
2022-12-04T03:36:19.145Z,26.00
2022-12-04T03:39:00.378Z,25.80
2022-12-04T03:41:52.263Z,26.77
2022-12-04T03:44:30.235Z,26.57
2022-12-04T03:47:08.983Z,25.10
2022-12-04T03:49:47.078Z,26.17
2022-12-04T03:52:37.401Z,25.62
2022-12-04T03:55:16.234Z,25.77
2022-12-04T03:57:48.337Z,25.23
2022-12-04T04:00:22.897Z,26.60
2022-12-04T04:03:01.341Z,24.43
2022-12-04T04:05:33.369Z,24.70
2022-12-04T04:08:23.354Z,24.17
2022-12-04T04:10:58.892Z,25.12
2022-12-04T04:13:55.025Z,25.72
2022-12-04T04:16:45.572Z,23.60
2022-12-04T04:19:35.328Z,24.15
2022-12-04T04:22:25.641Z,24.05
2022-12-04T04:25:07.105Z,24.05
2022-12-04T04:27:36.554Z,21.57
2022-12-04T04:30:09.240Z,22.45
2022-12-04T04:32:47.672Z,23.18
2022-12-04T04:35:23.092Z,23.10
2022-12-04T04:38:18.240Z,23.10
2022-12-04T04:40:50.742Z,21.12
2022-12-04T04:43:23.338Z,21.62
2022-12-04T04:45:55.977Z,22.52
2022-12-04T04:48:31.358Z,22.02
2022-12-04T04:51:02.527Z,22.15
2022-12-04T04:53:38.319Z,21.93
2022-12-04T04:56:08.677Z,22.27
2022-12-04T04:58:38.131Z,22.48
2022-12-04T05:01:10.655Z,21.27
2022-12-04T05:03:40.261Z,21.27
2022-12-04T05:06:09.759Z,21.60
2022-12-04T05:08:39.264Z,22.80
2022-12-04T05:11:11.777Z,21.17
2022-12-04T05:13:41.846Z,22.37
2022-12-04T05:16:16.200Z,21.68
2022-12-04T05:19:03.972Z,20.88
2022-12-04T05:21:34.278Z,20.68
2022-12-04T05:24:03.850Z,22.73
2022-12-04T05:26:33.282Z,22.85
2022-12-04T05:29:02.806Z,21.90
2022-12-04T05:31:32.501Z,22.05
2022-12-04T05:34:02.015Z,21.35
2022-12-04T05:36:31.428Z,21.25
2022-12-04T05:39:00.866Z,22.40
2022-12-04T05:41:30.312Z,21.42
2022-12-04T05:43:59.810Z,20.72
2022-12-04T05:46:29.284Z,21.40
2022-12-04T05:48:58.973Z,21.55
2022-12-04T05:51:28.545Z,21.75
2022-12-04T05:53:57.967Z,21.33
2022-12-04T05:56:27.612Z,21.48
2022-12-04T05:58:57.045Z,20.95
2022-12-04T06:01:26.543Z,20.45
2022-12-04T06:03:56.066Z,21.90
2022-12-04T06:06:26.851Z,23.05
2022-12-04T06:08:58.919Z,22.93
2022-12-04T06:11:34.556Z,20.27
2022-12-04T06:14:06.448Z,21.70
2022-12-04T06:16:39.251Z,21.67
2022-12-04T06:19:12.050Z,21.65
2022-12-04T06:21:43.313Z,20.45
2022-12-04T06:24:16.065Z,20.68
2022-12-04T06:27:11.048Z,20.83
2022-12-04T06:29:17.750Z,19.82
2022-12-04T06:31:47.249Z,20.92
2022-12-04T06:34:16.991Z,19.27
2022-12-04T06:36:46.418Z,21.15
2022-12-04T06:39:18.942Z,19.77
2022-12-04T06:41:47.757Z,20.25
2022-12-04T06:44:17.745Z,21.45
2022-12-04T06:46:48.076Z,22.17
2022-12-04T06:49:19.992Z,21.60
2022-12-04T06:51:49.567Z,23.95
2022-12-04T06:54:19.053Z,22.15
2022-12-04T06:56:50.810Z,21.63
2022-12-04T06:59:20.282Z,22.22
2022-12-04T07:01:49.875Z,20.50
2022-12-04T07:04:19.534Z,20.85
2022-12-04T07:06:48.972Z,20.80
2022-12-04T07:09:19.261Z,20.85
2022-12-04T07:11:48.764Z,20.20
2022-12-04T07:14:18.178Z,19.92
2022-12-04T07:16:47.744Z,19.60
2022-12-04T07:19:17.203Z,24.98
2022-12-04T07:21:46.638Z,20.68
2022-12-04T07:24:18.237Z,22.37
2022-12-04T07:26:48.199Z,21.63
2022-12-04T07:29:17.633Z,20.25
2022-12-04T07:31:47.282Z,23.15
2022-12-04T07:34:16.755Z,21.90
2022-12-04T07:36:46.194Z,22.45
2022-12-04T07:39:15.691Z,21.55
2022-12-04T07:41:45.179Z,21.17
2022-12-04T07:44:15.135Z,21.73
2022-12-04T07:46:44.562Z,23.07
2022-12-04T07:49:14.079Z,22.77
2022-12-04T07:51:43.671Z,21.77
2022-12-04T07:54:13.101Z,23.20
2022-12-04T07:56:42.532Z,23.40
2022-12-04T07:59:11.983Z,23.47
2022-12-04T08:01:41.971Z,21.80
2022-12-04T08:04:12.356Z,22.13
2022-12-04T08:06:42.183Z,24.60
2022-12-04T08:09:11.684Z,23.30
2022-12-04T08:11:41.183Z,24.40
2022-12-04T08:14:13.690Z,23.70
2022-12-04T08:16:48.205Z,22.40
2022-12-04T08:19:15.283Z,21.70
2022-12-04T08:21:44.726Z,21.35
2022-12-04T08:24:15.691Z,20.02
2022-12-04T08:26:45.171Z,21.33
2022-12-04T08:29:14.613Z,20.00
2022-12-04T08:31:44.030Z,20.65
2022-12-04T08:34:14.281Z,21.17
2022-12-04T08:36:43.862Z,21.93
2022-12-04T08:39:13.968Z,21.00
2022-12-04T08:41:43.384Z,22.77
2022-12-04T08:44:12.840Z,20.15
2022-12-04T08:46:42.408Z,19.65
2022-12-04T08:49:12.026Z,19.62
2022-12-04T08:51:41.505Z,19.65
2022-12-04T08:54:13.511Z,19.45
2022-12-04T08:56:44.668Z,19.87
2022-12-04T08:59:15.088Z,18.92
2022-12-04T09:01:44.652Z,18.73
2022-12-04T09:04:14.179Z,17.80
2022-12-04T09:06:43.689Z,18.85
2022-12-04T09:09:13.120Z,20.85
2022-12-04T09:11:44.106Z,19.95
2022-12-04T09:14:13.764Z,20.50
2022-12-04T09:16:43.194Z,20.95
2022-12-04T09:19:12.657Z,24.23
2022-12-04T09:21:42.093Z,21.85
2022-12-04T09:24:11.530Z,22.13
2022-12-04T09:26:41.258Z,20.85
2022-12-04T09:29:12.706Z,20.85
2022-12-04T09:31:42.288Z,20.23
2022-12-04T09:34:11.763Z,20.85
2022-12-04T09:36:41.550Z,19.80
2022-12-04T09:39:12.154Z,20.97
2022-12-04T09:42:01.418Z,20.15
2022-12-04T09:44:42.804Z,21.12
2022-12-04T09:47:24.131Z,20.92
2022-12-04T09:49:59.878Z,21.17
2022-12-04T09:53:01.256Z,20.77
2022-12-04T09:55:36.451Z,20.40
2022-12-04T09:58:09.331Z,21.80
2022-12-04T10:00:42.073Z,21.33
2022-12-04T10:03:23.550Z,21.05
2022-12-04T10:06:11.393Z,20.68
2022-12-04T10:08:43.858Z,21.80
2022-12-04T10:11:32.523Z,19.65
2022-12-04T10:14:19.111Z,20.80
2022-12-04T10:17:11.117Z,19.87
2022-12-04T10:20:13.348Z,18.15
2022-12-04T10:22:57.663Z,18.62
2022-12-04T10:25:29.168Z,19.85
2022-12-04T10:28:04.321Z,19.12
2022-12-04T10:30:36.851Z,19.00
2022-12-04T10:33:27.587Z,17.77
2022-12-04T10:35:57.563Z,17.93
2022-12-04T10:38:33.001Z,20.00
2022-12-04T10:41:08.860Z,19.17
2022-12-04T10:43:43.159Z,18.62
2022-12-04T10:46:15.787Z,18.48
2022-12-04T10:48:48.586Z,17.85
2022-12-04T10:51:21.763Z,17.75
2022-12-04T10:56:26.057Z,17.45
2022-12-04T10:59:04.424Z,18.02
2022-12-04T11:01:36.417Z,16.48
2022-12-04T11:04:09.257Z,16.73
2022-12-04T11:06:39.874Z,17.10
2022-12-04T11:09:11.035Z,17.25
2022-12-04T11:11:40.554Z,15.95
2022-12-04T11:14:19.100Z,16.05
2022-12-04T11:16:51.857Z,13.78
2022-12-04T11:19:30.190Z,14.70
2022-12-04T11:22:17.537Z,13.45
2022-12-04T11:24:56.036Z,13.72
2022-12-04T11:27:34.821Z,13.25
2022-12-04T11:30:10.193Z,12.07
2022-12-04T11:32:42.252Z,12.33
2022-12-04T11:35:20.589Z,12.50
2022-12-04T11:37:56.025Z,11.05
2022-12-04T11:40:27.663Z,11.25
2022-12-04T11:43:02.935Z,11.53
2022-12-04T11:45:33.216Z,12.15
2022-12-04T11:48:05.777Z,11.50
2022-12-04T11:53:14.071Z,12.47
2022-12-04T11:55:46.608Z,13.13
2022-12-04T12:01:01.312Z,13.68
2022-12-04T12:03:33.976Z,13.65
2022-12-04T12:06:14.873Z,14.95
2022-12-04T12:09:11.283Z,14.40
2022-12-04T12:11:43.785Z,13.88
2022-12-04T12:14:25.165Z,13.58
2022-12-04T12:17:00.302Z,13.70
2022-12-04T12:19:33.007Z,13.90
2022-12-04T12:22:11.108Z,14.93
2022-12-04T12:24:52.703Z,14.53
2022-12-04T12:27:40.032Z,14.58
2022-12-04T12:30:23.985Z,15.03
2022-12-04T12:32:56.470Z,15.25
2022-12-04T12:35:34.675Z,15.13
2022-12-04T12:38:13.002Z,15.50
2022-12-04T12:40:45.948Z,15.60
2022-12-04T12:43:18.507Z,15.18
2022-12-04T12:46:08.805Z,14.43
2022-12-04T12:48:47.272Z,15.30
2022-12-04T12:51:36.177Z,14.23
2022-12-04T12:54:20.716Z,14.55
2022-12-04T12:56:53.355Z,14.40
2022-12-04T12:59:25.901Z,15.78
2022-12-04T13:02:02.546Z,14.87
2022-12-04T13:04:47.586Z,14.95
2022-12-04T13:07:23.035Z,16.80
2022-12-04T13:09:55.724Z,18.07
2022-12-04T13:12:27.296Z,19.87
2022-12-04T13:14:56.749Z,21.85
2022-12-04T13:17:35.192Z,22.48
2022-12-04T13:20:10.949Z,21.35
2022-12-04T13:22:43.525Z,21.80
2022-12-04T13:25:21.974Z,20.90
2022-12-04T13:28:15.561Z,21.77
2022-12-04T13:33:32.955Z,20.45
2022-12-04T13:36:11.496Z,19.50
2022-12-04T13:38:53.685Z,19.27
2022-12-04T13:41:26.032Z,18.17
2022-12-04T13:44:00.620Z,20.90
2022-12-04T13:46:35.382Z,17.17
2022-12-04T13:49:24.806Z,15.57
2022-12-04T13:51:56.079Z,14.53
2022-12-04T13:54:28.573Z,14.23
2022-12-04T13:57:01.207Z,14.47
2022-12-04T13:59:36.208Z,13.80
2022-12-04T14:02:25.088Z,17.55
2022-12-04T14:05:06.058Z,15.45
2022-12-04T14:07:38.601Z,14.40
2022-12-04T14:10:11.675Z,14.87
2022-12-04T14:15:25.968Z,15.40
2022-12-04T14:18:16.582Z,15.03
2022-12-04T14:20:46.159Z,14.00
2022-12-04T14:23:25.485Z,14.93
2022-12-04T14:25:57.962Z,15.80
2022-12-04T14:28:30.438Z,14.28
2022-12-04T14:31:08.924Z,14.53
2022-12-04T14:33:47.171Z,18.25
2022-12-04T14:36:25.763Z,20.43
2022-12-04T14:38:58.271Z,16.80
2022-12-04T14:41:28.317Z,16.37
2022-12-04T14:43:58.278Z,16.10
2022-12-04T14:46:30.888Z,16.70
2022-12-04T14:49:36.455Z,16.62
2022-12-04T14:52:17.866Z,19.02
2022-12-04T14:55:00.788Z,15.85
2022-12-04T15:00:09.100Z,15.95
2022-12-04T15:02:44.326Z,15.93
2022-12-04T15:05:22.606Z,14.80
2022-12-04T15:07:55.140Z,14.68
2022-12-04T15:10:45.673Z,14.10
2022-12-04T15:13:21.469Z,13.20
2022-12-04T15:15:48.463Z,19.10
2022-12-04T15:18:19.161Z,11.60
2022-12-04T15:20:56.052Z,12.25
2022-12-04T15:23:33.835Z,11.78
2022-12-04T15:26:09.315Z,15.35
2022-12-04T15:28:58.493Z,17.33
2022-12-04T15:31:33.355Z,18.82
2022-12-04T15:34:05.444Z,13.78
2022-12-04T15:36:53.000Z,14.37
2022-12-04T15:39:28.467Z,14.47
2022-12-04T15:42:10.220Z,14.78
2022-12-04T15:44:39.680Z,14.90
2022-12-04T15:47:18.195Z,14.43
2022-12-04T15:49:47.844Z,14.80
2022-12-04T15:52:25.501Z,14.07
2022-12-04T15:55:03.215Z,13.70
2022-12-04T15:57:35.249Z,12.60
2022-12-04T16:00:07.785Z,13.83
2022-12-04T16:02:40.216Z,14.13
2022-12-04T16:05:15.548Z,14.65
2022-12-04T16:07:59.581Z,13.20
2022-12-04T16:10:34.632Z,14.35
2022-12-04T16:13:06.094Z,14.85
2022-12-04T16:15:40.865Z,14.68
2022-12-04T16:18:13.717Z,16.82
2022-12-04T16:20:43.247Z,17.00
2022-12-04T16:23:12.986Z,19.10
2022-12-04T16:25:42.433Z,18.33
2022-12-04T16:28:12.234Z,21.57
2022-12-04T16:30:41.968Z,24.82
2022-12-04T16:33:16.113Z,26.68
2022-12-04T16:35:45.710Z,25.62
2022-12-04T16:38:18.912Z,23.02
2022-12-04T16:40:49.346Z,20.75
2022-12-04T16:43:18.957Z,21.33
2022-12-04T16:45:54.239Z,21.42
2022-12-04T16:48:23.733Z,26.20
2022-12-04T16:50:53.314Z,27.15
2022-12-04T16:53:23.949Z,32.90
2022-12-04T16:55:54.541Z,31.90
2022-12-04T16:58:23.979Z,28.40
2022-12-04T17:00:58.930Z,29.80
2022-12-04T17:03:34.009Z,29.10
2022-12-04T17:06:03.435Z,28.60
2022-12-04T17:08:33.479Z,25.90
2022-12-04T17:11:03.030Z,24.90
2022-12-04T17:13:32.471Z,24.20
2022-12-04T17:16:02.001Z,25.20
2022-12-04T17:18:31.651Z,26.17
2022-12-04T17:21:02.616Z,28.45
2022-12-04T17:23:32.088Z,28.10
2022-12-04T17:26:07.272Z,28.67
2022-12-04T17:28:37.291Z,28.02
2022-12-04T17:31:15.716Z,29.32
2022-12-04T17:33:46.495Z,29.85
2022-12-04T17:36:18.741Z,30.72
2022-12-04T17:38:48.376Z,35.98
2022-12-04T17:41:17.802Z,38.40
2022-12-04T17:43:47.823Z,40.60
2022-12-04T17:46:21.607Z,42.95
2022-12-04T17:48:51.513Z,42.67
2022-12-04T17:51:23.366Z,40.58
2022-12-04T17:53:53.513Z,44.43
2022-12-04T17:56:25.326Z,43.50
2022-12-04T17:58:55.098Z,41.23
2022-12-04T18:01:27.797Z,39.08
2022-12-04T18:04:00.518Z,37.42
2022-12-04T18:06:33.040Z,41.23
2022-12-04T18:09:04.227Z,37.95
2022-12-04T18:11:36.616Z,38.88
2022-12-04T18:14:12.305Z,34.23
2022-12-04T18:16:43.690Z,30.60
2022-12-04T18:19:15.718Z,30.55
2022-12-04T18:21:45.180Z,30.08
2022-12-04T18:24:15.347Z,29.72
2022-12-04T18:26:48.121Z,30.37
2022-12-04T18:29:20.641Z,34.18
2022-12-04T18:31:51.370Z,33.90
2022-12-04T18:34:23.467Z,37.08
2022-12-04T18:36:52.955Z,43.83
2022-12-04T18:39:25.035Z,46.45
2022-12-04T18:41:57.131Z,51.67
2022-12-04T18:44:27.330Z,41.77
2022-12-04T18:46:58.421Z,33.33
2022-12-04T18:49:27.892Z,35.03
2022-12-04T18:51:59.905Z,37.33
2022-12-04T18:54:29.367Z,38.80
2022-12-04T18:56:58.807Z,36.40
2022-12-04T18:59:29.504Z,38.33
2022-12-04T19:01:59.001Z,38.90
2022-12-04T19:04:28.463Z,36.80
2022-12-04T19:06:57.999Z,38.95
2022-12-04T19:10:09.569Z,38.42
2022-12-04T19:12:01.344Z,37.23
2022-12-04T19:14:30.838Z,40.55
2022-12-04T19:17:00.337Z,40.95
2022-12-04T19:19:31.829Z,42.08
2022-12-04T19:22:02.358Z,44.45
2022-12-04T19:24:32.070Z,40.43
2022-12-04T19:27:03.144Z,44.25
2022-12-04T19:29:32.670Z,45.52
2022-12-04T19:32:02.220Z,43.90
2022-12-04T19:34:31.786Z,40.80
2022-12-04T19:37:01.314Z,45.58
2022-12-04T19:39:30.754Z,45.90
2022-12-04T19:42:00.195Z,48.92
2022-12-04T19:47:00.790Z,50.00
2022-12-04T19:49:30.302Z,49.55
2022-12-04T19:51:59.735Z,44.58
2022-12-04T19:54:30.678Z,46.20
2022-12-04T19:57:01.557Z,49.83
2022-12-04T19:59:36.429Z,53.52
2022-12-04T20:02:02.883Z,54.83
2022-12-04T20:04:32.404Z,52.38
2022-12-04T20:07:01.841Z,49.73
2022-12-04T20:09:31.337Z,51.92
2022-12-04T20:12:00.879Z,53.50
2022-12-04T20:14:30.298Z,50.98
2022-12-04T20:17:01.467Z,50.38
2022-12-04T20:19:30.964Z,49.23
2022-12-04T20:22:00.400Z,50.23
2022-12-04T20:24:30.328Z,51.77
2022-12-04T20:26:59.861Z,49.03
2022-12-04T20:29:29.290Z,50.05
2022-12-04T20:31:58.774Z,50.28
2022-12-04T20:34:28.251Z,50.45
2022-12-04T20:36:59.351Z,51.48
2022-12-04T20:39:29.966Z,51.68
2022-12-04T20:42:01.106Z,47.93
2022-12-04T20:44:30.570Z,48.70
2022-12-04T20:47:00.080Z,52.80
2022-12-04T20:49:29.500Z,54.05
2022-12-04T20:51:58.964Z,52.55
2022-12-04T20:54:28.384Z,51.65
2022-12-04T20:56:57.886Z,55.70
2022-12-04T20:59:27.439Z,47.43
2022-12-04T21:01:56.986Z,49.63
2022-12-04T21:04:26.470Z,45.43
2022-12-04T21:06:56.227Z,42.98
2022-12-04T21:09:26.742Z,42.60
2022-12-04T21:11:56.872Z,40.95
2022-12-04T21:14:47.827Z,42.05
2022-12-04T21:17:20.494Z,42.20
2022-12-04T21:19:51.585Z,42.58
2022-12-04T21:22:21.366Z,41.37
2022-12-04T21:24:50.808Z,42.53
2022-12-04T21:27:21.339Z,43.25
2022-12-04T21:29:51.434Z,47.25
2022-12-04T21:32:21.469Z,47.60
2022-12-04T21:34:52.152Z,48.10
2022-12-04T21:37:21.658Z,46.48
2022-12-04T21:39:51.174Z,44.38
2022-12-04T21:42:33.380Z,46.25
2022-12-04T21:45:06.197Z,48.63
2022-12-04T21:47:37.842Z,46.63
2022-12-04T21:50:08.767Z,46.97
2022-12-04T21:52:38.232Z,49.40
2022-12-04T21:55:07.798Z,62.48
2022-12-04T21:57:37.221Z,64.03
2022-12-04T22:00:08.111Z,60.45
2022-12-04T22:02:38.018Z,62.83
2022-12-04T22:05:09.656Z,61.10
2022-12-04T22:07:39.185Z,56.83
2022-12-04T22:10:11.037Z,52.60
2022-12-04T22:12:49.556Z,46.60
2022-12-04T22:15:12.167Z,49.60
2022-12-04T22:17:41.662Z,45.25
2022-12-04T22:20:11.343Z,45.60
2022-12-04T22:22:40.794Z,52.93
2022-12-04T22:25:10.720Z,52.10
2022-12-04T22:27:40.176Z,51.88
2022-12-04T22:30:10.150Z,48.25
2022-12-04T22:32:39.573Z,47.48
2022-12-04T22:35:09.476Z,44.83
2022-12-04T22:37:44.060Z,55.38
2022-12-04T22:40:12.160Z,52.58
2022-12-04T22:42:42.531Z,51.00
2022-12-04T22:45:12.925Z,50.60
2022-12-04T22:47:42.561Z,48.75
2022-12-04T22:50:13.290Z,41.37
2022-12-04T22:52:42.827Z,41.02
2022-12-04T22:55:12.820Z,39.08
2022-12-04T22:57:42.302Z,40.30
2022-12-04T23:00:12.862Z,38.20
2022-12-04T23:02:42.397Z,38.92
2022-12-04T23:05:11.862Z,44.37
2022-12-04T23:07:41.429Z,41.65
2022-12-04T23:10:11.061Z,39.80
2022-12-04T23:12:40.494Z,39.35
2022-12-04T23:15:10.263Z,38.55
2022-12-04T23:17:39.724Z,38.33
2022-12-04T23:20:10.301Z,36.70
2022-12-04T23:22:40.372Z,39.48
2022-12-04T23:25:09.946Z,40.00
2022-12-04T23:27:39.391Z,37.73
2022-12-04T23:30:10.727Z,36.60
2022-12-04T23:32:40.251Z,35.67
2022-12-04T23:35:09.961Z,34.83
2022-12-04T23:37:39.404Z,35.17
2022-12-04T23:40:09.755Z,37.20
2022-12-04T23:42:39.301Z,36.35
2022-12-04T23:45:09.573Z,34.38
2022-12-04T23:47:39.003Z,35.80
2022-12-04T23:50:08.870Z,36.25
2022-12-04T23:52:38.297Z,35.00
2022-12-04T23:55:09.331Z,33.58
2022-12-04T23:57:38.768Z,35.05
